createdAt,value
2022-11-26T00:02:27.038Z,47.70
2022-11-26T00:05:14.807Z,46.17
2022-11-26T00:08:01.999Z,45.05
2022-11-26T00:10:51.009Z,47.20
2022-11-26T00:13:36.456Z,47.35
2022-11-26T00:16:22.439Z,49.40
2022-11-26T00:19:08.074Z,49.83
2022-11-26T00:21:53.911Z,49.00
2022-11-26T00:24:39.773Z,46.70
2022-11-26T00:27:27.501Z,48.80
2022-11-26T00:30:23.645Z,48.80
2022-11-26T00:33:09.214Z,47.08
2022-11-26T00:35:59.105Z,46.25
2022-11-26T00:38:47.219Z,47.40
2022-11-26T00:41:35.791Z,44.47
2022-11-26T00:44:23.360Z,44.28
2022-11-26T00:47:10.087Z,44.35
2022-11-26T00:49:55.699Z,42.78
2022-11-26T00:52:41.697Z,43.33
2022-11-26T00:55:31.970Z,42.28
2022-11-26T00:58:27.693Z,43.50
2022-11-26T01:01:16.464Z,41.30
2022-11-26T01:04:02.259Z,43.90
2022-11-26T01:06:48.065Z,41.05
2022-11-26T01:09:33.559Z,41.90
2022-11-26T01:12:18.889Z,43.22
2022-11-26T01:15:04.929Z,41.00
2022-11-26T01:17:51.996Z,41.78
2022-11-26T01:20:37.386Z,41.42
2022-11-26T01:23:23.195Z,40.30
2022-11-26T01:26:18.289Z,41.95
2022-11-26T01:29:04.495Z,41.50
2022-11-26T01:31:50.343Z,42.08
2022-11-26T01:34:36.025Z,39.85
2022-11-26T01:37:22.189Z,38.80
2022-11-26T01:40:47.047Z,39.35
2022-11-26T01:43:43.308Z,40.75
2022-11-26T01:46:30.963Z,41.15
2022-11-26T01:49:17.907Z,43.35
2022-11-26T01:52:03.577Z,42.25
2022-11-26T01:54:50.826Z,42.47
2022-11-26T01:57:38.754Z,43.00
2022-11-26T02:00:24.624Z,42.63
2022-11-26T02:03:10.740Z,44.53
2022-11-26T02:06:02.168Z,45.00
2022-11-26T02:08:48.080Z,44.85
2022-11-26T02:11:33.823Z,45.50
2022-11-26T02:14:26.873Z,46.65
2022-11-26T02:17:15.320Z,44.90
2022-11-26T02:20:22.165Z,46.30
2022-11-26T02:23:40.076Z,47.95
2022-11-26T02:26:35.096Z,46.30
2022-11-26T02:29:43.067Z,45.40
2022-11-26T02:32:51.615Z,47.47
2022-11-26T02:35:55.934Z,47.03
2022-11-26T02:38:41.932Z,49.83
2022-11-26T02:41:33.871Z,49.97
2022-11-26T02:44:23.970Z,48.42
2022-11-26T02:47:14.318Z,51.10
2022-11-26T02:50:07.309Z,50.78
2022-11-26T02:52:55.002Z,52.97
2022-11-26T02:55:46.055Z,52.55
2022-11-26T02:58:33.114Z,53.70
2022-11-26T03:01:31.770Z,53.55
2022-11-26T03:04:22.913Z,53.08
2022-11-26T03:07:10.170Z,54.38
2022-11-26T03:09:58.690Z,54.85
2022-11-26T03:12:44.440Z,53.95
2022-11-26T03:15:30.155Z,54.95
2022-11-26T03:18:15.715Z,52.75
2022-11-26T03:21:01.486Z,55.42
2022-11-26T03:23:46.884Z,55.78
2022-11-26T03:26:32.280Z,55.65
2022-11-26T03:29:18.099Z,57.85
2022-11-26T03:32:04.242Z,58.05
2022-11-26T03:34:50.281Z,56.60
2022-11-26T03:37:35.905Z,57.88
2022-11-26T03:40:21.853Z,57.72
2022-11-26T03:43:07.607Z,58.78
2022-11-26T03:45:53.571Z,61.38
2022-11-26T03:48:39.362Z,59.83
2022-11-26T03:51:26.636Z,62.85
2022-11-26T03:54:12.339Z,62.30
2022-11-26T03:56:58.154Z,63.10
2022-11-26T03:59:43.637Z,61.05
2022-11-26T04:02:28.937Z,63.75
2022-11-26T04:05:14.584Z,62.95
2022-11-26T04:08:00.233Z,61.15
2022-11-26T04:10:46.112Z,64.70
2022-11-26T04:13:31.672Z,65.30
2022-11-26T04:16:17.252Z,62.60
2022-11-26T04:19:02.844Z,60.95
2022-11-26T04:21:48.416Z,61.60
2022-11-26T04:24:34.331Z,62.28
2022-11-26T04:27:19.792Z,61.03
2022-11-26T04:30:07.784Z,61.10
2022-11-26T04:32:53.287Z,62.63
2022-11-26T04:35:39.031Z,59.92
2022-11-26T04:38:26.106Z,61.45
2022-11-26T04:41:12.056Z,59.15
2022-11-26T04:43:57.492Z,59.22
2022-11-26T04:46:43.374Z,59.70
2022-11-26T04:49:28.657Z,58.97
2022-11-26T04:52:14.608Z,59.33
2022-11-26T04:55:00.422Z,59.85
2022-11-26T04:57:48.583Z,59.92
2022-11-26T05:00:34.420Z,57.80
2022-11-26T05:03:20.128Z,60.75
2022-11-26T05:06:05.934Z,59.65
2022-11-26T05:08:51.835Z,62.35
2022-11-26T05:11:37.585Z,59.03
2022-11-26T05:14:23.048Z,60.78
2022-11-26T05:17:08.560Z,60.58
2022-11-26T05:19:53.909Z,58.60
2022-11-26T05:22:39.627Z,55.72
2022-11-26T05:25:25.299Z,48.13
2022-11-26T05:28:11.011Z,46.80
2022-11-26T05:31:01.181Z,44.10
2022-11-26T05:33:46.702Z,42.97
2022-11-26T05:36:32.380Z,42.15
2022-11-26T05:39:18.340Z,43.15
2022-11-26T05:42:08.978Z,44.25
2022-11-26T05:44:55.266Z,46.55
2022-11-26T05:47:40.753Z,41.35
2022-11-26T05:50:26.727Z,39.50
2022-11-26T05:53:12.242Z,39.88
2022-11-26T05:55:58.121Z,39.25
2022-11-26T05:58:43.656Z,36.88
2022-11-26T06:01:29.336Z,36.28
2022-11-26T06:04:14.997Z,38.13
2022-11-26T06:07:00.358Z,41.15
2022-11-26T06:09:45.908Z,42.35
2022-11-26T06:12:31.470Z,41.50
2022-11-26T06:15:17.295Z,42.67
2022-11-26T06:18:03.247Z,41.25
2022-11-26T06:20:48.680Z,42.65
2022-11-26T06:23:34.791Z,42.03
2022-11-26T06:26:20.250Z,41.85
2022-11-26T06:29:05.962Z,42.88
2022-11-26T06:31:51.833Z,42.72
2022-11-26T06:34:37.538Z,40.08
2022-11-26T06:37:23.573Z,39.85
2022-11-26T06:40:15.499Z,40.22
2022-11-26T06:43:01.272Z,41.60
2022-11-26T06:45:46.915Z,39.53
2022-11-26T06:48:33.587Z,43.13
2022-11-26T06:51:22.412Z,40.70
2022-11-26T06:54:08.291Z,41.00
2022-11-26T06:56:53.749Z,39.47
2022-11-26T06:59:39.350Z,40.15
2022-11-26T07:02:25.150Z,40.35
2022-11-26T07:05:10.721Z,41.70
2022-11-26T07:07:56.377Z,40.55
2022-11-26T07:10:46.100Z,40.55
2022-11-26T07:13:34.716Z,40.28
2022-11-26T07:16:21.007Z,41.28
2022-11-26T07:19:06.883Z,39.35
2022-11-26T07:21:52.834Z,41.08
2022-11-26T07:24:38.533Z,40.83
2022-11-26T07:27:24.190Z,40.67
2022-11-26T07:30:10.152Z,39.30
2022-11-26T07:32:55.706Z,40.55
2022-11-26T07:35:41.469Z,40.65
2022-11-26T07:38:28.231Z,41.10
2022-11-26T07:41:16.273Z,41.97
2022-11-26T07:44:01.901Z,41.00
2022-11-26T07:46:47.391Z,40.90
2022-11-26T07:49:33.024Z,40.63
2022-11-26T07:52:18.703Z,41.45
2022-11-26T07:55:09.482Z,40.75
2022-11-26T07:57:57.771Z,40.72
2022-11-26T08:00:43.299Z,40.60
2022-11-26T08:03:28.938Z,41.75
2022-11-26T08:06:20.528Z,43.85
2022-11-26T08:09:07.616Z,44.60
2022-11-26T08:11:53.170Z,45.65
2022-11-26T08:14:39.087Z,44.00
2022-11-26T08:17:25.248Z,45.53
2022-11-26T08:20:11.236Z,47.63
2022-11-26T08:22:57.057Z,46.20
2022-11-26T08:26:06.120Z,47.47
2022-11-26T08:28:48.928Z,46.45
2022-11-26T08:31:34.964Z,50.30
2022-11-26T08:34:20.997Z,49.97
2022-11-26T08:37:06.865Z,53.53
2022-11-26T08:39:52.673Z,53.95
2022-11-26T08:42:38.221Z,56.80
2022-11-26T08:45:23.929Z,56.75
2022-11-26T08:48:09.835Z,56.97
2022-11-26T08:51:00.479Z,58.67
2022-11-26T08:53:46.251Z,57.30
2022-11-26T08:56:31.937Z,58.72
2022-11-26T08:59:19.860Z,58.55
2022-11-26T09:02:05.647Z,60.13
2022-11-26T09:04:51.113Z,61.22
2022-11-26T09:07:36.810Z,62.05
2022-11-26T09:10:22.265Z,65.03
2022-11-26T09:13:07.928Z,65.22
2022-11-26T09:15:53.595Z,66.07
2022-11-26T09:18:39.280Z,64.95
2022-11-26T09:21:24.802Z,66.50
2022-11-26T09:24:13.410Z,63.63
2022-11-26T09:27:04.178Z,62.72
2022-11-26T09:29:53.205Z,64.97
2022-11-26T09:32:38.948Z,64.50
2022-11-26T09:35:25.217Z,63.05
2022-11-26T09:38:10.665Z,61.95
2022-11-26T09:41:13.702Z,60.85
2022-11-26T09:44:27.048Z,58.13
2022-11-26T09:47:19.874Z,58.10
2022-11-26T09:50:11.311Z,56.33
2022-11-26T09:53:12.776Z,55.47
2022-11-26T09:56:00.585Z,54.70
2022-11-26T09:58:52.278Z,54.40
2022-11-26T10:01:37.834Z,53.30
2022-11-26T10:04:33.187Z,52.33
2022-11-26T10:07:49.679Z,49.40
2022-11-26T10:10:52.024Z,49.88
2022-11-26T10:13:37.770Z,51.15
2022-11-26T10:16:46.813Z,51.22
2022-11-26T10:19:57.509Z,47.30
2022-11-26T10:22:56.910Z,49.85
2022-11-26T10:26:15.712Z,50.63
2022-11-26T10:29:25.982Z,48.53
2022-11-26T10:32:16.979Z,47.85
2022-11-26T10:35:03.101Z,49.47
2022-11-26T10:37:49.955Z,46.67
2022-11-26T10:40:35.715Z,48.63
2022-11-26T10:43:24.546Z,47.47
2022-11-26T10:46:33.925Z,46.72
2022-11-26T10:49:30.390Z,44.85
2022-11-26T10:52:20.915Z,47.47
2022-11-26T10:55:21.113Z,47.88
2022-11-26T10:58:19.168Z,46.83
2022-11-26T11:01:06.035Z,48.40
2022-11-26T11:04:10.541Z,45.95
2022-11-26T11:06:57.378Z,46.83
2022-11-26T11:09:43.492Z,44.30
2022-11-26T11:12:29.025Z,46.03
2022-11-26T11:15:23.597Z,46.80
2022-11-26T11:18:36.086Z,39.97
2022-11-26T11:21:22.451Z,45.55
2022-11-26T11:24:11.161Z,43.08
2022-11-26T11:26:58.681Z,48.22
2022-11-26T11:29:46.439Z,46.28
2022-11-26T11:32:39.046Z,45.08
2022-11-26T11:35:30.300Z,48.30
2022-11-26T11:38:24.591Z,46.53
2022-11-26T11:41:26.247Z,45.70
2022-11-26T11:44:25.373Z,46.88
2022-11-26T11:47:48.458Z,46.53
2022-11-26T11:50:44.208Z,43.10
2022-11-26T11:53:38.944Z,44.17
2022-11-26T11:56:38.501Z,46.03
2022-11-26T11:59:58.725Z,47.72
2022-11-26T12:03:18.788Z,52.47
2022-11-26T12:06:14.507Z,50.40
2022-11-26T12:09:49.899Z,53.97
2022-11-26T12:12:50.822Z,51.63
2022-11-26T12:16:03.106Z,51.40
2022-11-26T12:19:18.933Z,50.40
2022-11-26T12:22:39.932Z,47.40
2022-11-26T12:25:37.177Z,47.08
2022-11-26T12:28:31.808Z,54.15
2022-11-26T12:31:26.375Z,50.83
2022-11-26T12:34:14.831Z,51.75
2022-11-26T12:37:28.274Z,52.72
2022-11-26T12:40:16.918Z,57.77
2022-11-26T12:43:16.172Z,55.78
2022-11-26T12:46:17.458Z,50.47
2022-11-26T12:49:24.150Z,50.42
2022-11-26T12:52:25.755Z,57.25
2022-11-26T12:55:32.980Z,57.75
2022-11-26T12:58:27.169Z,55.88
2022-11-26T13:01:13.299Z,56.88
2022-11-26T13:04:22.009Z,59.42
2022-11-26T13:07:15.378Z,59.42
2022-11-26T13:10:20.303Z,54.33
2022-11-26T13:13:41.460Z,55.30
2022-11-26T13:16:39.999Z,58.72
2022-11-26T13:19:41.900Z,60.85
2022-11-26T13:22:52.713Z,57.38
2022-11-26T13:26:06.767Z,56.38
2022-11-26T13:32:11.322Z,53.75
2022-11-26T13:35:19.675Z,58.45
2022-11-26T13:38:38.193Z,56.97
2022-11-26T13:41:39.525Z,52.70
2022-11-26T13:44:36.879Z,59.83
2022-11-26T13:47:33.056Z,60.70
2022-11-26T13:50:18.850Z,60.78
2022-11-26T13:53:18.133Z,62.08
2022-11-26T13:56:07.449Z,61.00
2022-11-26T13:59:04.696Z,62.45
2022-11-26T14:01:50.840Z,64.80
2022-11-26T14:04:49.103Z,66.60
2022-11-26T14:07:34.855Z,63.40
2022-11-26T14:10:41.506Z,63.83
2022-11-26T14:13:27.906Z,63.28
2022-11-26T14:16:13.869Z,58.97
2022-11-26T14:19:00.642Z,66.15
2022-11-26T14:21:59.352Z,63.10
2022-11-26T14:24:48.481Z,62.78
2022-11-26T14:27:59.126Z,63.97
2022-11-26T14:30:45.120Z,68.32
2022-11-26T14:33:32.148Z,66.80
2022-11-26T14:36:31.479Z,68.80
2022-11-26T14:39:17.267Z,68.03
2022-11-26T14:42:06.427Z,68.30
2022-11-26T14:45:17.039Z,70.78
2022-11-26T14:48:03.929Z,67.50
2022-11-26T14:50:50.864Z,68.22
2022-11-26T14:53:40.879Z,67.15
2022-11-26T14:56:27.556Z,65.38
2022-11-26T14:59:18.626Z,67.00
2022-11-26T15:02:22.086Z,69.57
2022-11-26T15:05:24.122Z,68.50
2022-11-26T15:08:20.378Z,73.07
2022-11-26T15:11:07.573Z,76.32
2022-11-26T15:13:53.586Z,73.75
2022-11-26T15:16:41.436Z,74.90
2022-11-26T15:19:30.700Z,72.47
2022-11-26T15:22:27.252Z,73.53
2022-11-26T15:25:28.411Z,72.00
2022-11-26T15:28:20.336Z,71.00
2022-11-26T15:31:09.956Z,72.22
2022-11-26T15:33:55.968Z,71.53
2022-11-26T15:36:41.940Z,71.20
2022-11-26T15:39:31.564Z,71.10
2022-11-26T15:42:35.861Z,74.07
2022-11-26T15:48:28.123Z,74.90
2022-11-26T15:51:37.441Z,71.97
2022-11-26T15:54:56.710Z,70.47
2022-11-26T15:57:42.048Z,71.85
2022-11-26T16:00:38.479Z,73.28
2022-11-26T16:03:43.188Z,71.28
2022-11-26T16:06:36.837Z,73.65
2022-11-26T16:12:34.389Z,72.30
2022-11-26T16:15:24.611Z,73.57
2022-11-26T16:18:17.220Z,74.80
2022-11-26T16:21:08.669Z,72.77
2022-11-26T16:24:01.785Z,73.05
2022-11-26T16:27:05.338Z,73.38
2022-11-26T16:29:50.908Z,70.90
2022-11-26T16:32:36.576Z,72.38
2022-11-26T16:35:44.721Z,71.60
2022-11-26T16:38:31.307Z,70.07
2022-11-26T16:41:18.943Z,65.10
2022-11-26T16:44:04.949Z,64.43
2022-11-26T16:46:51.969Z,62.22
2022-11-26T16:49:37.977Z,60.13
2022-11-26T16:52:23.929Z,60.08
2022-11-26T16:55:13.668Z,57.90
2022-11-26T16:58:01.498Z,60.17
2022-11-26T17:00:47.272Z,61.25
2022-11-26T17:03:33.486Z,58.30
2022-11-26T17:06:31.396Z,58.97
2022-11-26T17:09:20.705Z,58.50
2022-11-26T17:12:13.624Z,57.50
2022-11-26T17:14:59.065Z,58.13
2022-11-26T17:17:45.251Z,56.95
2022-11-26T17:20:31.067Z,58.70
2022-11-26T17:23:17.114Z,59.28
2022-11-26T17:26:05.289Z,59.97
2022-11-26T17:28:51.417Z,58.08
2022-11-26T17:31:37.437Z,60.00
2022-11-26T17:34:23.236Z,56.50
2022-11-26T17:37:15.043Z,54.15
2022-11-26T17:40:00.753Z,54.85
2022-11-26T17:42:46.804Z,54.45
2022-11-26T17:45:32.549Z,55.20
2022-11-26T17:48:19.047Z,56.95
2022-11-26T17:51:04.749Z,59.15
2022-11-26T17:53:50.424Z,60.75
2022-11-26T17:56:37.149Z,60.78
2022-11-26T17:59:24.029Z,62.60
2022-11-26T18:02:10.458Z,60.13
2022-11-26T18:04:56.240Z,59.90
2022-11-26T18:07:41.995Z,58.20
2022-11-26T18:10:27.372Z,57.08
2022-11-26T18:13:14.281Z,57.58
2022-11-26T18:16:00.635Z,57.25
2022-11-26T18:18:45.820Z,56.75
2022-11-26T18:21:31.576Z,58.13
2022-11-26T18:24:17.194Z,52.47
2022-11-26T18:27:04.304Z,53.58
2022-11-26T18:29:50.445Z,51.88
2022-11-26T18:32:37.952Z,51.08
2022-11-26T18:35:23.525Z,51.25
2022-11-26T18:38:11.354Z,49.30
2022-11-26T18:41:03.511Z,48.90
2022-11-26T18:43:49.512Z,49.42
2022-11-26T18:46:35.741Z,47.58
2022-11-26T18:49:21.379Z,47.20
2022-11-26T18:52:06.995Z,48.70
2022-11-26T18:54:52.537Z,46.67
2022-11-26T18:57:38.215Z,44.78
2022-11-26T19:00:23.710Z,44.95
2022-11-26T19:03:09.596Z,45.08
2022-11-26T19:05:55.979Z,43.88
2022-11-26T19:08:41.605Z,41.58
2022-11-26T19:11:30.644Z,39.63
2022-11-26T19:14:16.318Z,35.03
2022-11-26T19:17:01.962Z,36.03
2022-11-26T19:19:47.897Z,36.17
2022-11-26T19:22:34.218Z,36.28
2022-11-26T19:25:20.097Z,38.38
2022-11-26T19:28:06.648Z,36.83
2022-11-26T19:31:03.596Z,34.38
2022-11-26T19:33:54.130Z,36.33
2022-11-26T19:36:40.045Z,37.22
2022-11-26T19:39:25.620Z,35.15
2022-11-26T19:42:11.254Z,33.42
2022-11-26T19:44:56.809Z,35.80
2022-11-26T19:47:42.795Z,35.00
2022-11-26T19:50:28.415Z,34.58
2022-11-26T19:53:13.862Z,35.97
2022-11-26T19:56:12.797Z,32.67
2022-11-26T19:59:02.837Z,30.15
2022-11-26T20:01:49.026Z,29.63
2022-11-26T20:04:34.845Z,30.40
2022-11-26T20:07:22.732Z,29.55
2022-11-26T20:10:09.219Z,30.83
2022-11-26T20:12:55.051Z,29.38
2022-11-26T20:15:47.207Z,30.27
2022-11-26T20:18:34.193Z,30.02
2022-11-26T20:21:28.548Z,30.42
2022-11-26T20:24:16.676Z,29.45
2022-11-26T20:27:02.846Z,27.55
2022-11-26T20:29:48.003Z,28.08
2022-11-26T20:32:33.593Z,27.83
2022-11-26T20:35:19.279Z,29.50
2022-11-26T20:38:04.828Z,28.15
2022-11-26T20:40:50.471Z,29.58
2022-11-26T20:43:36.201Z,29.90
2022-11-26T20:46:22.292Z,30.42
2022-11-26T20:49:10.892Z,30.17
2022-11-26T20:51:56.610Z,30.77
2022-11-26T20:54:42.501Z,30.05
2022-11-26T20:57:28.280Z,30.92
2022-11-26T21:00:17.093Z,30.42
2022-11-26T21:03:02.824Z,31.55
2022-11-26T21:05:48.795Z,32.20
2022-11-26T21:08:36.414Z,33.03
2022-11-26T21:11:21.881Z,34.92
2022-11-26T21:14:13.388Z,37.38
2022-11-26T21:17:00.661Z,36.30
2022-11-26T21:19:46.202Z,36.35
2022-11-26T21:22:31.711Z,36.20
2022-11-26T21:25:19.679Z,37.22
2022-11-26T21:28:05.996Z,37.78
2022-11-26T21:30:51.549Z,37.97
2022-11-26T21:33:39.521Z,37.47
2022-11-26T21:36:25.578Z,38.33
2022-11-26T21:39:16.108Z,38.20
2022-11-26T21:42:01.940Z,38.85
2022-11-26T21:44:47.612Z,39.92
2022-11-26T21:47:33.605Z,39.08
2022-11-26T21:50:19.870Z,40.65
2022-11-26T21:53:05.598Z,40.90
2022-11-26T21:55:53.029Z,39.88
2022-11-26T21:58:38.996Z,39.95
2022-11-26T22:01:26.864Z,40.80
2022-11-26T22:04:15.927Z,40.33
2022-11-26T22:07:01.880Z,37.53
2022-11-26T22:09:47.508Z,37.00
2022-11-26T22:12:33.081Z,36.67
2022-11-26T22:15:20.242Z,39.97
2022-11-26T22:18:05.688Z,40.50
2022-11-26T22:20:54.449Z,37.97
2022-11-26T22:23:40.292Z,35.88
2022-11-26T22:26:28.228Z,37.92
2022-11-26T22:29:16.435Z,36.60
2022-11-26T22:32:02.120Z,35.40
2022-11-26T22:34:47.620Z,33.13
2022-11-26T22:37:33.774Z,34.13
2022-11-26T22:40:19.699Z,35.10
2022-11-26T22:43:05.207Z,34.40
2022-11-26T22:45:50.913Z,35.38
2022-11-26T22:48:36.717Z,34.75
2022-11-26T22:51:23.400Z,36.40
2022-11-26T22:54:12.046Z,34.90
2022-11-26T22:56:57.958Z,34.47
2022-11-26T22:59:44.224Z,33.80
2022-11-26T23:02:30.072Z,33.80
2022-11-26T23:05:15.692Z,33.15
2022-11-26T23:08:01.625Z,36.55
2022-11-26T23:10:50.945Z,35.45
2022-11-26T23:13:37.017Z,33.80
2022-11-26T23:16:25.643Z,34.55
2022-11-26T23:19:13.985Z,34.20
2022-11-26T23:21:59.822Z,32.42
2022-11-26T23:24:45.272Z,30.52
2022-11-26T23:27:30.938Z,35.38
2022-11-26T23:30:17.003Z,35.55
2022-11-26T23:33:02.648Z,37.95
2022-11-26T23:35:48.925Z,37.03
2022-11-26T23:38:35.655Z,33.63
2022-11-26T23:41:21.220Z,29.42
2022-11-26T23:44:07.155Z,27.42
2022-11-26T23:46:52.719Z,30.00
2022-11-26T23:49:38.772Z,27.25
2022-11-26T23:52:24.718Z,23.95
2022-11-26T23:55:10.380Z,23.00
2022-11-26T23:57:56.057Z,23.40
